sensor_id;sensor_type;location;lat;lon;timestamp;P1;durP1;ratioP1;P2;durP2;ratioP2
52186;SDS011;38161;53.020;6.598;2024-03-23T00:57:32;22.42;;;5.07;;
52186;SDS011;38161;53.020;6.598;2024-03-23T00:59:58;24.60;;;5.47;;
52186;SDS011;38161;53.020;6.598;2024-03-23T01:02:24;22.35;;;4.78;;
52186;SDS011;38161;53.020;6.598;2024-03-23T01:04:50;18.77;;;4.53;;
52186;SDS011;38161;53.020;6.598;2024-03-23T01:07:15;22.15;;;4.70;;
52186;SDS011;38161;53.020;6.598;2024-03-23T01:09:41;15.93;;;4.77;;
52186;SDS011;38161;53.020;6.598;2024-03-23T01:12:07;26.60;;;5.93;;
52186;SDS011;38161;53.020;6.598;2024-03-23T01:14:32;31.77;;;5.60;;
52186;SDS011;38161;53.020;6.598;2024-03-23T01:16:58;19.20;;;4.87;;
52186;SDS011;38161;53.020;6.598;2024-03-23T01:19:24;19.87;;;4.80;;
52186;SDS011;38161;53.020;6.598;2024-03-23T01:21:50;17.77;;;4.40;;
52186;SDS011;38161;53.020;6.598;2024-03-23T01:24:15;21.20;;;5.13;;
52186;SDS011;38161;53.020;6.598;2024-03-23T01:26:41;19.38;;;5.00;;
52186;SDS011;38161;53.020;6.598;2024-03-23T01:29:07;23.60;;;5.15;;
52186;SDS011;38161;53.020;6.598;2024-03-23T01:31:33;25.63;;;5.47;;
52186;SDS011;38161;53.020;6.598;2024-03-23T01:33:59;17.93;;;5.33;;
52186;SDS011;38161;53.020;6.598;2024-03-23T01:36:25;22.85;;;4.88;;
52186;SDS011;38161;53.020;6.598;2024-03-23T01:38:51;23.75;;;5.68;;
52186;SDS011;38161;53.020;6.598;2024-03-23T01:41:17;21.85;;;4.95;;
52186;SDS011;38161;53.020;6.598;2024-03-23T01:43:43;19.33;;;6.18;;
52186;SDS011;38161;53.020;6.598;2024-03-23T01:46:08;24.27;;;5.23;;
52186;SDS011;38161;53.020;6.598;2024-03-23T01:48:35;19.95;;;5.75;;
52186;SDS011;38161;53.020;6.598;2024-03-23T01:51:01;22.35;;;5.32;;
52186;SDS011;38161;53.020;6.598;2024-03-23T01:53:27;22.27;;;5.38;;
52186;SDS011;38161;53.020;6.598;2024-03-23T01:55:53;24.25;;;5.57;;
52186;SDS011;38161;53.020;6.598;2024-03-23T01:58:20;17.33;;;4.85;;
52186;SDS011;38161;53.020;6.598;2024-03-23T02:00:45;22.97;;;5.03;;
52186;SDS011;38161;53.020;6.598;2024-03-23T02:05:50;18.63;;;4.63;;
52186;SDS011;38161;53.020;6.598;2024-03-23T02:08:18;16.08;;;4.25;;
52186;SDS011;38161;53.020;6.598;2024-03-23T02:10:45;18.90;;;5.47;;
52186;SDS011;38161;53.020;6.598;2024-03-23T02:13:11;17.25;;;4.07;;
52186;SDS011;38161;53.020;6.598;2024-03-23T02:15:38;19.15;;;4.38;;
52186;SDS011;38161;53.020;6.598;2024-03-23T02:18:04;17.38;;;4.65;;
52186;SDS011;38161;53.020;6.598;2024-03-23T02:20:32;24.85;;;4.70;;
52186;SDS011;38161;53.020;6.598;2024-03-23T02:22:58;20.25;;;4.90;;
52186;SDS011;38161;53.020;6.598;2024-03-23T02:25:23;25.00;;;4.87;;
52186;SDS011;38161;53.020;6.598;2024-03-23T02:27:49;23.20;;;4.47;;
52186;SDS011;38161;53.020;6.598;2024-03-23T02:30:15;18.63;;;4.78;;
52186;SDS011;38161;53.020;6.598;2024-03-23T02:32:41;19.97;;;4.40;;
52186;SDS011;38161;53.020;6.598;2024-03-23T02:35:06;17.70;;;4.27;;
52186;SDS011;38161;53.020;6.598;2024-03-23T02:37:32;22.83;;;4.80;;
52186;SDS011;38161;53.020;6.598;2024-03-23T02:39:58;21.85;;;4.85;;
52186;SDS011;38161;53.020;6.598;2024-03-23T02:42:24;20.92;;;5.50;;
52186;SDS011;38161;53.020;6.598;2024-03-23T02:44:50;22.52;;;4.63;;
52186;SDS011;38161;53.020;6.598;2024-03-23T02:47:16;20.13;;;4.13;;
52186;SDS011;38161;53.020;6.598;2024-03-23T02:49:41;17.43;;;4.40;;
52186;SDS011;38161;53.020;6.598;2024-03-23T02:52:07;14.07;;;4.47;;
52186;SDS011;38161;53.020;6.598;2024-03-23T02:54:33;18.63;;;4.47;;
52186;SDS011;38161;53.020;6.598;2024-03-23T02:56:59;16.00;;;4.10;;
52186;SDS011;38161;53.020;6.598;2024-03-23T02:59:24;23.75;;;4.95;;
52186;SDS011;38161;53.020;6.598;2024-03-23T03:01:50;17.60;;;4.10;;
52186;SDS011;38161;53.020;6.598;2024-03-23T03:04:16;18.27;;;4.30;;
52186;SDS011;38161;53.020;6.598;2024-03-23T03:06:41;21.40;;;4.77;;
52186;SDS011;38161;53.020;6.598;2024-03-23T03:09:10;15.63;;;5.10;;
52186;SDS011;38161;53.020;6.598;2024-03-23T03:11:35;16.30;;;3.97;;
52186;SDS011;38161;53.020;6.598;2024-03-23T03:14:01;14.97;;;3.97;;
52186;SDS011;38161;53.020;6.598;2024-03-23T03:16:27;18.45;;;4.13;;
52186;SDS011;38161;53.020;6.598;2024-03-23T03:18:53;19.10;;;4.40;;
52186;SDS011;38161;53.020;6.598;2024-03-23T03:21:19;20.30;;;4.65;;
52186;SDS011;38161;53.020;6.598;2024-03-23T03:23:44;18.17;;;4.93;;
52186;SDS011;38161;53.020;6.598;2024-03-23T03:26:10;17.35;;;5.50;;
52186;SDS011;38161;53.020;6.598;2024-03-23T03:28:36;17.30;;;3.78;;
52186;SDS011;38161;53.020;6.598;2024-03-23T03:31:02;18.63;;;4.30;;
52186;SDS011;38161;53.020;6.598;2024-03-23T03:33:28;19.10;;;4.60;;
52186;SDS011;38161;53.020;6.598;2024-03-23T03:35:54;18.42;;;4.40;;
52186;SDS011;38161;53.020;6.598;2024-03-23T03:38:20;17.75;;;3.78;;
52186;SDS011;38161;53.020;6.598;2024-03-23T03:40:46;15.65;;;4.18;;
52186;SDS011;38161;53.020;6.598;2024-03-23T03:43:12;13.70;;;4.53;;
52186;SDS011;38161;53.020;6.598;2024-03-23T03:45:38;14.83;;;4.30;;
52186;SDS011;38161;53.020;6.598;2024-03-23T03:48:04;18.65;;;4.57;;
52186;SDS011;38161;53.020;6.598;2024-03-23T03:50:30;24.65;;;4.63;;
52186;SDS011;38161;53.020;6.598;2024-03-23T03:52:55;19.85;;;5.13;;
52186;SDS011;38161;53.020;6.598;2024-03-23T03:55:21;17.10;;;4.43;;
52186;SDS011;38161;53.020;6.598;2024-03-23T03:57:47;15.77;;;4.30;;
52186;SDS011;38161;53.020;6.598;2024-03-23T04:00:13;16.67;;;4.33;;
52186;SDS011;38161;53.020;6.598;2024-03-23T04:02:39;14.52;;;4.03;;
52186;SDS011;38161;53.020;6.598;2024-03-23T04:05:05;18.63;;;4.63;;
52186;SDS011;38161;53.020;6.598;2024-03-23T04:07:31;16.02;;;4.43;;
52186;SDS011;38161;53.020;6.598;2024-03-23T04:09:57;17.25;;;3.92;;
52186;SDS011;38161;53.020;6.598;2024-03-23T04:12:23;17.60;;;4.13;;
52186;SDS011;38161;53.020;6.598;2024-03-23T04:14:49;19.00;;;3.85;;
52186;SDS011;38161;53.020;6.598;2024-03-23T04:17:15;17.88;;;3.95;;
52186;SDS011;38161;53.020;6.598;2024-03-23T04:19:41;14.25;;;3.42;;
52186;SDS011;38161;53.020;6.598;2024-03-23T04:22:07;17.13;;;4.07;;
52186;SDS011;38161;53.020;6.598;2024-03-23T04:24:33;15.95;;;4.72;;
52186;SDS011;38161;53.020;6.598;2024-03-23T04:26:59;18.07;;;3.90;;
52186;SDS011;38161;53.020;6.598;2024-03-23T04:29:24;10.80;;;3.50;;
52186;SDS011;38161;53.020;6.598;2024-03-23T04:31:52;16.17;;;3.92;;
52186;SDS011;38161;53.020;6.598;2024-03-23T04:34:17;19.80;;;4.30;;
52186;SDS011;38161;53.020;6.598;2024-03-23T04:36:43;13.68;;;4.13;;
52186;SDS011;38161;53.020;6.598;2024-03-23T04:39:09;15.13;;;3.80;;
52186;SDS011;38161;53.020;6.598;2024-03-23T04:41:35;19.17;;;4.07;;
52186;SDS011;38161;53.020;6.598;2024-03-23T04:44:01;15.70;;;3.40;;
52186;SDS011;38161;53.020;6.598;2024-03-23T04:46:27;12.43;;;3.40;;
52186;SDS011;38161;53.020;6.598;2024-03-23T04:48:53;13.68;;;3.72;;
52186;SDS011;38161;53.020;6.598;2024-03-23T04:51:24;10.60;;;3.30;;
52186;SDS011;38161;53.020;6.598;2024-03-23T04:53:51;21.17;;;4.25;;
52186;SDS011;38161;53.020;6.598;2024-03-23T04:56:17;15.20;;;4.03;;
52186;SDS011;38161;53.020;6.598;2024-03-23T04:58:43;16.77;;;3.80;;
52186;SDS011;38161;53.020;6.598;2024-03-23T05:01:10;14.95;;;3.70;;
52186;SDS011;38161;53.020;6.598;2024-03-23T05:03:36;14.43;;;3.50;;
52186;SDS011;38161;53.020;6.598;2024-03-23T05:06:02;15.18;;;3.83;;
52186;SDS011;38161;53.020;6.598;2024-03-23T05:08:28;13.90;;;3.35;;
52186;SDS011;38161;53.020;6.598;2024-03-23T05:10:53;16.35;;;3.40;;
52186;SDS011;38161;53.020;6.598;2024-03-23T05:13:19;13.67;;;3.13;;
52186;SDS011;38161;53.020;6.598;2024-03-23T05:15:50;14.03;;;3.80;;
52186;SDS011;38161;53.020;6.598;2024-03-23T05:18:19;14.43;;;3.15;;
52186;SDS011;38161;53.020;6.598;2024-03-23T05:20:46;12.55;;;3.28;;
52186;SDS011;38161;53.020;6.598;2024-03-23T05:23:11;12.77;;;3.23;;
52186;SDS011;38161;53.020;6.598;2024-03-23T05:25:37;14.97;;;3.20;;
52186;SDS011;38161;53.020;6.598;2024-03-23T05:28:03;16.20;;;3.17;;
52186;SDS011;38161;53.020;6.598;2024-03-23T05:30:29;17.73;;;3.28;;
52186;SDS011;38161;53.020;6.598;2024-03-23T05:32:54;13.67;;;3.00;;
52186;SDS011;38161;53.020;6.598;2024-03-23T05:35:20;18.80;;;3.13;;
52186;SDS011;38161;53.020;6.598;2024-03-23T05:37:46;14.73;;;3.15;;
52186;SDS011;38161;53.020;6.598;2024-03-23T05:40:12;18.02;;;3.25;;
52186;SDS011;38161;53.020;6.598;2024-03-23T05:42:40;13.30;;;3.08;;
52186;SDS011;38161;53.020;6.598;2024-03-23T05:45:06;17.92;;;3.65;;
52186;SDS011;38161;53.020;6.598;2024-03-23T05:47:33;17.02;;;3.78;;
52186;SDS011;38161;53.020;6.598;2024-03-23T05:49:59;14.45;;;3.08;;
52186;SDS011;38161;53.020;6.598;2024-03-23T05:52:25;15.52;;;3.50;;
52186;SDS011;38161;53.020;6.598;2024-03-23T05:54:52;13.35;;;3.40;;
52186;SDS011;38161;53.020;6.598;2024-03-23T05:57:18;17.90;;;3.43;;
52186;SDS011;38161;53.020;6.598;2024-03-23T05:59:44;13.27;;;3.30;;
52186;SDS011;38161;53.020;6.598;2024-03-23T06:02:10;11.65;;;3.03;;
52186;SDS011;38161;53.020;6.598;2024-03-23T06:04:36;12.70;;;3.15;;
52186;SDS011;38161;53.020;6.598;2024-03-23T06:07:02;16.83;;;3.55;;
52186;SDS011;38161;53.020;6.598;2024-03-23T06:09:28;17.88;;;4.03;;
52186;SDS011;38161;53.020;6.598;2024-03-23T06:11:56;14.68;;;2.88;;
52186;SDS011;38161;53.020;6.598;2024-03-23T06:14:22;17.53;;;3.00;;
52186;SDS011;38161;53.020;6.598;2024-03-23T06:16:48;9.93;;;2.80;;
52186;SDS011;38161;53.020;6.598;2024-03-23T06:19:14;12.38;;;3.15;;
52186;SDS011;38161;53.020;6.598;2024-03-23T06:21:43;17.17;;;2.95;;
52186;SDS011;38161;53.020;6.598;2024-03-23T06:24:10;14.15;;;3.10;;
52186;SDS011;38161;53.020;6.598;2024-03-23T06:26:36;14.52;;;2.65;;
52186;SDS011;38161;53.020;6.598;2024-03-23T06:29:02;12.93;;;2.87;;
52186;SDS011;38161;53.020;6.598;2024-03-23T06:31:28;13.13;;;3.00;;
52186;SDS011;38161;53.020;6.598;2024-03-23T06:33:55;13.35;;;2.88;;
52186;SDS011;38161;53.020;6.598;2024-03-23T06:36:20;13.60;;;2.42;;
52186;SDS011;38161;53.020;6.598;2024-03-23T06:38:46;14.25;;;3.17;;
52186;SDS011;38161;53.020;6.598;2024-03-23T06:41:12;8.27;;;2.35;;
52186;SDS011;38161;53.020;6.598;2024-03-23T06:43:38;14.70;;;3.10;;
52186;SDS011;38161;53.020;6.598;2024-03-23T06:46:04;13.93;;;2.88;;
52186;SDS011;38161;53.020;6.598;2024-03-23T06:48:30;19.77;;;3.05;;
52186;SDS011;38161;53.020;6.598;2024-03-23T06:50:56;10.95;;;2.58;;
52186;SDS011;38161;53.020;6.598;2024-03-23T06:53:22;12.30;;;2.80;;
52186;SDS011;38161;53.020;6.598;2024-03-23T06:55:51;11.00;;;2.40;;
52186;SDS011;38161;53.020;6.598;2024-03-23T06:58:21;15.60;;;2.70;;
52186;SDS011;38161;53.020;6.598;2024-03-23T07:00:49;12.73;;;2.80;;
52186;SDS011;38161;53.020;6.598;2024-03-23T07:03:16;16.20;;;3.03;;
52186;SDS011;38161;53.020;6.598;2024-03-23T07:05:42;12.20;;;2.53;;
52186;SDS011;38161;53.020;6.598;2024-03-23T07:08:08;9.23;;;3.03;;
52186;SDS011;38161;53.020;6.598;2024-03-23T07:10:34;14.52;;;3.38;;
52186;SDS011;38161;53.020;6.598;2024-03-23T07:13:01;16.05;;;3.40;;
52186;SDS011;38161;53.020;6.598;2024-03-23T07:15:26;15.77;;;3.20;;
52186;SDS011;38161;53.020;6.598;2024-03-23T07:17:52;10.88;;;2.33;;
52186;SDS011;38161;53.020;6.598;2024-03-23T07:20:18;9.73;;;2.58;;
52186;SDS011;38161;53.020;6.598;2024-03-23T07:25:11;9.27;;;2.42;;
52186;SDS011;38161;53.020;6.598;2024-03-23T07:27:37;12.13;;;2.60;;
52186;SDS011;38161;53.020;6.598;2024-03-23T07:30:02;7.70;;;2.20;;
52186;SDS011;38161;53.020;6.598;2024-03-23T07:32:28;9.30;;;2.90;;
52186;SDS011;38161;53.020;6.598;2024-03-23T07:34:54;8.93;;;2.30;;
52186;SDS011;38161;53.020;6.598;2024-03-23T07:37:20;10.60;;;3.17;;
52186;SDS011;38161;53.020;6.598;2024-03-23T07:39:46;12.35;;;2.80;;
52186;SDS011;38161;53.020;6.598;2024-03-23T07:42:12;12.57;;;2.80;;
52186;SDS011;38161;53.020;6.598;2024-03-23T07:44:37;10.60;;;2.40;;
52186;SDS011;38161;53.020;6.598;2024-03-23T07:47:03;10.30;;;2.90;;
52186;SDS011;38161;53.020;6.598;2024-03-23T07:49:29;10.43;;;2.50;;
52186;SDS011;38161;53.020;6.598;2024-03-23T07:51:55;11.90;;;2.80;;
52186;SDS011;38161;53.020;6.598;2024-03-23T07:54:21;6.30;;;2.20;;
52186;SDS011;38161;53.020;6.598;2024-03-23T07:56:46;7.70;;;2.17;;
52186;SDS011;38161;53.020;6.598;2024-03-23T07:59:12;8.47;;;2.07;;
52186;SDS011;38161;53.020;6.598;2024-03-23T08:01:38;8.27;;;1.73;;
52186;SDS011;38161;53.020;6.598;2024-03-23T08:04:04;10.07;;;2.10;;
52186;SDS011;38161;53.020;6.598;2024-03-23T08:06:31;6.20;;;1.90;;
52186;SDS011;38161;53.020;6.598;2024-03-23T08:08:57;10.48;;;2.38;;
52186;SDS011;38161;53.020;6.598;2024-03-23T08:11:29;9.05;;;2.38;;
52186;SDS011;38161;53.020;6.598;2024-03-23T08:13:56;7.03;;;1.90;;
52186;SDS011;38161;53.020;6.598;2024-03-23T08:16:23;8.05;;;2.40;;
52186;SDS011;38161;53.020;6.598;2024-03-23T08:18:52;8.05;;;2.15;;
52186;SDS011;38161;53.020;6.598;2024-03-23T08:21:18;6.43;;;2.15;;
52186;SDS011;38161;53.020;6.598;2024-03-23T08:23:44;4.60;;;1.60;;
52186;SDS011;38161;53.020;6.598;2024-03-23T08:26:11;8.50;;;1.90;;
52186;SDS011;38161;53.020;6.598;2024-03-23T08:28:38;5.85;;;2.00;;
52186;SDS011;38161;53.020;6.598;2024-03-23T08:31:07;8.48;;;1.80;;
52186;SDS011;38161;53.020;6.598;2024-03-23T08:33:34;5.53;;;1.67;;
52186;SDS011;38161;53.020;6.598;2024-03-23T08:38:27;5.32;;;2.05;;
52186;SDS011;38161;53.020;6.598;2024-03-23T08:40:57;8.82;;;2.22;;
52186;SDS011;38161;53.020;6.598;2024-03-23T08:43:23;7.75;;;2.60;;
52186;SDS011;38161;53.020;6.598;2024-03-23T08:45:49;10.13;;;1.80;;
52186;SDS011;38161;53.020;6.598;2024-03-23T08:48:15;7.27;;;2.03;;
52186;SDS011;38161;53.020;6.598;2024-03-23T08:50:41;12.02;;;2.40;;
52186;SDS011;38161;53.020;6.598;2024-03-23T08:53:07;10.73;;;2.80;;
52186;SDS011;38161;53.020;6.598;2024-03-23T08:55:33;7.53;;;2.67;;
52186;SDS011;38161;53.020;6.598;2024-03-23T08:57:59;6.90;;;2.77;;
52186;SDS011;38161;53.020;6.598;2024-03-23T09:00:25;9.20;;;2.70;;
52186;SDS011;38161;53.020;6.598;2024-03-23T09:02:51;9.53;;;2.80;;
52186;SDS011;38161;53.020;6.598;2024-03-23T09:07:43;9.20;;;2.75;;
52186;SDS011;38161;53.020;6.598;2024-03-23T09:10:09;11.07;;;2.57;;
52186;SDS011;38161;53.020;6.598;2024-03-23T09:12:35;7.03;;;2.50;;
52186;SDS011;38161;53.020;6.598;2024-03-23T09:15:01;9.60;;;2.40;;
52186;SDS011;38161;53.020;6.598;2024-03-23T09:17:26;12.18;;;3.00;;
52186;SDS011;38161;53.020;6.598;2024-03-23T09:19:52;10.83;;;2.90;;
52186;SDS011;38161;53.020;6.598;2024-03-23T09:22:18;9.57;;;2.58;;
52186;SDS011;38161;53.020;6.598;2024-03-23T09:24:44;10.93;;;2.83;;
52186;SDS011;38161;53.020;6.598;2024-03-23T09:27:09;9.37;;;2.90;;
52186;SDS011;38161;53.020;6.598;2024-03-23T09:29:35;15.17;;;2.47;;
52186;SDS011;38161;53.020;6.598;2024-03-23T09:32:01;11.43;;;2.90;;
52186;SDS011;38161;53.020;6.598;2024-03-23T09:34:26;7.93;;;2.50;;
52186;SDS011;38161;53.020;6.598;2024-03-23T09:36:52;10.57;;;3.00;;
52186;SDS011;38161;53.020;6.598;2024-03-23T09:39:18;12.27;;;2.33;;
52186;SDS011;38161;53.020;6.598;2024-03-23T09:41:44;10.95;;;2.20;;
52186;SDS011;38161;53.020;6.598;2024-03-23T09:44:10;8.32;;;1.77;;
52186;SDS011;38161;53.020;6.598;2024-03-23T09:46:36;10.48;;;2.15;;
52186;SDS011;38161;53.020;6.598;2024-03-23T09:49:04;6.38;;;1.77;;
52186;SDS011;38161;53.020;6.598;2024-03-23T09:51:35;15.23;;;1.90;;
52186;SDS011;38161;53.020;6.598;2024-03-23T09:54:02;7.88;;;2.03;;
52186;SDS011;38161;53.020;6.598;2024-03-23T09:56:28;11.57;;;2.35;;
52186;SDS011;38161;53.020;6.598;2024-03-23T09:59:00;11.30;;;2.58;;
52186;SDS011;38161;53.020;6.598;2024-03-23T10:01:29;8.70;;;2.20;;
52186;SDS011;38161;53.020;6.598;2024-03-23T10:03:55;10.88;;;2.13;;
52186;SDS011;38161;53.020;6.598;2024-03-23T10:06:22;8.57;;;1.95;;
52186;SDS011;38161;53.020;6.598;2024-03-23T10:08:50;16.50;;;2.05;;
52186;SDS011;38161;53.020;6.598;2024-03-23T10:11:16;8.65;;;1.73;;
52186;SDS011;38161;53.020;6.598;2024-03-23T10:13:44;8.35;;;1.95;;
52186;SDS011;38161;53.020;6.598;2024-03-23T10:16:20;9.85;;;2.42;;
52186;SDS011;38161;53.020;6.598;2024-03-23T10:18:48;8.02;;;1.85;;
52186;SDS011;38161;53.020;6.598;2024-03-23T10:21:14;6.90;;;1.73;;
52186;SDS011;38161;53.020;6.598;2024-03-23T10:23:41;9.02;;;1.98;;
52186;SDS011;38161;53.020;6.598;2024-03-23T10:26:16;7.20;;;2.08;;
52186;SDS011;38161;53.020;6.598;2024-03-23T10:31:33;9.23;;;1.90;;
52186;SDS011;38161;53.020;6.598;2024-03-23T10:34:02;11.77;;;2.05;;
52186;SDS011;38161;53.020;6.598;2024-03-23T10:36:29;6.53;;;1.67;;
52186;SDS011;38161;53.020;6.598;2024-03-23T10:38:55;7.18;;;1.80;;
52186;SDS011;38161;53.020;6.598;2024-03-23T10:41:25;7.53;;;1.95;;
52186;SDS011;38161;53.020;6.598;2024-03-23T10:43:56;6.10;;;1.60;;
52186;SDS011;38161;53.020;6.598;2024-03-23T10:46:24;9.45;;;2.03;;
52186;SDS011;38161;53.020;6.598;2024-03-23T10:48:50;10.38;;;2.38;;
52186;SDS011;38161;53.020;6.598;2024-03-23T10:51:16;4.90;;;2.13;;
52186;SDS011;38161;53.020;6.598;2024-03-23T10:53:42;10.43;;;2.20;;
52186;SDS011;38161;53.020;6.598;2024-03-23T10:56:07;6.63;;;1.50;;
52186;SDS011;38161;53.020;6.598;2024-03-23T10:58:42;4.95;;;1.50;;
52186;SDS011;38161;53.020;6.598;2024-03-23T11:01:11;4.85;;;1.30;;
52186;SDS011;38161;53.020;6.598;2024-03-23T11:06:04;4.22;;;1.10;;
52186;SDS011;38161;53.020;6.598;2024-03-23T11:08:34;4.40;;;1.17;;
52186;SDS011;38161;53.020;6.598;2024-03-23T11:11:14;8.38;;;3.72;;
52186;SDS011;38161;53.020;6.598;2024-03-23T11:13:50;5.07;;;1.27;;
52186;SDS011;38161;53.020;6.598;2024-03-23T11:16:21;5.20;;;1.25;;
52186;SDS011;38161;53.020;6.598;2024-03-23T11:18:49;4.40;;;1.27;;
52186;SDS011;38161;53.020;6.598;2024-03-23T11:24:19;6.20;;;1.20;;
52186;SDS011;38161;53.020;6.598;2024-03-23T11:26:46;3.63;;;0.90;;
52186;SDS011;38161;53.020;6.598;2024-03-23T11:29:14;3.55;;;1.25;;
52186;SDS011;38161;53.020;6.598;2024-03-23T11:31:47;6.93;;;1.55;;
52186;SDS011;38161;53.020;6.598;2024-03-23T11:34:17;2.65;;;1.00;;
52186;SDS011;38161;53.020;6.598;2024-03-23T11:36:43;8.80;;;1.60;;
52186;SDS011;38161;53.020;6.598;2024-03-23T11:41:49;5.38;;;1.40;;
52186;SDS011;38161;53.020;6.598;2024-03-23T11:44:19;6.60;;;1.52;;
52186;SDS011;38161;53.020;6.598;2024-03-23T11:46:47;5.30;;;1.40;;
52186;SDS011;38161;53.020;6.598;2024-03-23T11:49:26;14.20;;;1.58;;
52186;SDS011;38161;53.020;6.598;2024-03-23T11:51:54;6.25;;;1.45;;
52186;SDS011;38161;53.020;6.598;2024-03-23T11:54:21;7.78;;;1.45;;
52186;SDS011;38161;53.020;6.598;2024-03-23T12:02:09;5.32;;;1.17;;
52186;SDS011;38161;53.020;6.598;2024-03-23T12:04:36;7.15;;;1.30;;
52186;SDS011;38161;53.020;6.598;2024-03-23T12:07:19;6.97;;;1.50;;
52186;SDS011;38161;53.020;6.598;2024-03-23T12:09:47;6.43;;;1.58;;
52186;SDS011;38161;53.020;6.598;2024-03-23T12:12:28;6.07;;;1.10;;
52186;SDS011;38161;53.020;6.598;2024-03-23T12:15:04;7.97;;;1.47;;
52186;SDS011;38161;53.020;6.598;2024-03-23T12:17:31;6.32;;;1.13;;
52186;SDS011;38161;53.020;6.598;2024-03-23T12:19:57;6.10;;;1.58;;
52186;SDS011;38161;53.020;6.598;2024-03-23T12:22:23;4.10;;;0.93;;
52186;SDS011;38161;53.020;6.598;2024-03-23T12:27:15;6.50;;;1.50;;
52186;SDS011;38161;53.020;6.598;2024-03-23T12:29:42;4.95;;;1.30;;
52186;SDS011;38161;53.020;6.598;2024-03-23T12:32:12;5.22;;;1.15;;
52186;SDS011;38161;53.020;6.598;2024-03-23T12:34:38;6.82;;;1.02;;
52186;SDS011;38161;53.020;6.598;2024-03-23T12:37:04;6.35;;;1.60;;
52186;SDS011;38161;53.020;6.598;2024-03-23T12:39:34;7.53;;;1.83;;
52186;SDS011;38161;53.020;6.598;2024-03-23T12:42:00;6.90;;;1.83;;
52186;SDS011;38161;53.020;6.598;2024-03-23T12:44:28;9.65;;;2.38;;
52186;SDS011;38161;53.020;6.598;2024-03-23T12:46:54;7.80;;;2.30;;
52186;SDS011;38161;53.020;6.598;2024-03-23T12:49:19;9.60;;;2.35;;
52186;SDS011;38161;53.020;6.598;2024-03-23T12:51:53;7.93;;;2.30;;
52186;SDS011;38161;53.020;6.598;2024-03-23T12:54:20;9.48;;;2.40;;
52186;SDS011;38161;53.020;6.598;2024-03-23T12:56:47;6.05;;;2.00;;
52186;SDS011;38161;53.020;6.598;2024-03-23T12:59:12;7.47;;;1.57;;
52186;SDS011;38161;53.020;6.598;2024-03-23T13:01:39;6.57;;;1.90;;
52186;SDS011;38161;53.020;6.598;2024-03-23T13:04:04;9.93;;;2.50;;
52186;SDS011;38161;53.020;6.598;2024-03-23T13:06:30;8.73;;;2.33;;
52186;SDS011;38161;53.020;6.598;2024-03-23T13:08:59;9.07;;;2.55;;
52186;SDS011;38161;53.020;6.598;2024-03-23T13:11:26;8.85;;;1.70;;
52186;SDS011;38161;53.020;6.598;2024-03-23T13:13:53;10.88;;;1.85;;
52186;SDS011;38161;53.020;6.598;2024-03-23T13:16:18;8.48;;;1.83;;
52186;SDS011;38161;53.020;6.598;2024-03-23T13:18:44;7.38;;;2.38;;
52186;SDS011;38161;53.020;6.598;2024-03-23T13:21:10;6.07;;;1.73;;
52186;SDS011;38161;53.020;6.598;2024-03-23T13:23:36;9.68;;;2.38;;
52186;SDS011;38161;53.020;6.598;2024-03-23T13:26:03;8.27;;;2.60;;
52186;SDS011;38161;53.020;6.598;2024-03-23T13:28:28;9.30;;;2.80;;
52186;SDS011;38161;53.020;6.598;2024-03-23T13:30:55;8.70;;;2.20;;
52186;SDS011;38161;53.020;6.598;2024-03-23T13:33:22;7.63;;;2.13;;
52186;SDS011;38161;53.020;6.598;2024-03-23T13:35:58;10.98;;;2.88;;
52186;SDS011;38161;53.020;6.598;2024-03-23T13:38:24;8.07;;;2.35;;
52186;SDS011;38161;53.020;6.598;2024-03-23T13:40:54;6.18;;;2.20;;
52186;SDS011;38161;53.020;6.598;2024-03-23T13:43:21;9.10;;;2.13;;
52186;SDS011;38161;53.020;6.598;2024-03-23T13:45:48;5.43;;;2.00;;
52186;SDS011;38161;53.020;6.598;2024-03-23T13:48:18;11.20;;;2.42;;
52186;SDS011;38161;53.020;6.598;2024-03-23T13:51:02;10.25;;;2.65;;
52186;SDS011;38161;53.020;6.598;2024-03-23T13:53:29;13.10;;;3.08;;
52186;SDS011;38161;53.020;6.598;2024-03-23T13:55:55;11.45;;;2.72;;
52186;SDS011;38161;53.020;6.598;2024-03-23T13:58:21;7.30;;;2.70;;
52186;SDS011;38161;53.020;6.598;2024-03-23T14:00:48;9.10;;;2.33;;
52186;SDS011;38161;53.020;6.598;2024-03-23T14:03:14;13.90;;;2.73;;
52186;SDS011;38161;53.020;6.598;2024-03-23T14:05:40;9.10;;;2.25;;
52186;SDS011;38161;53.020;6.598;2024-03-23T14:08:06;10.43;;;2.92;;
52186;SDS011;38161;53.020;6.598;2024-03-23T14:12:58;9.32;;;2.50;;
52186;SDS011;38161;53.020;6.598;2024-03-23T14:15:28;10.70;;;2.40;;
52186;SDS011;38161;53.020;6.598;2024-03-23T14:17:55;8.68;;;2.20;;
52186;SDS011;38161;53.020;6.598;2024-03-23T14:20:21;13.68;;;3.45;;
52186;SDS011;38161;53.020;6.598;2024-03-23T14:22:48;11.98;;;2.72;;
52186;SDS011;38161;53.020;6.598;2024-03-23T14:25:14;8.55;;;2.60;;
52186;SDS011;38161;53.020;6.598;2024-03-23T14:27:40;12.95;;;2.63;;
52186;SDS011;38161;53.020;6.598;2024-03-23T14:30:06;12.27;;;4.05;;
52186;SDS011;38161;53.020;6.598;2024-03-23T14:32:32;10.43;;;2.55;;
52186;SDS011;38161;53.020;6.598;2024-03-23T14:35:02;8.80;;;2.35;;
52186;SDS011;38161;53.020;6.598;2024-03-23T14:37:29;8.32;;;2.65;;
52186;SDS011;38161;53.020;6.598;2024-03-23T14:39:58;13.00;;;2.58;;
52186;SDS011;38161;53.020;6.598;2024-03-23T14:42:24;9.73;;;2.60;;
52186;SDS011;38161;53.020;6.598;2024-03-23T14:44:50;7.57;;;2.65;;
52186;SDS011;38161;53.020;6.598;2024-03-23T14:49:44;12.50;;;3.33;;
52186;SDS011;38161;53.020;6.598;2024-03-23T14:52:15;8.85;;;2.70;;
52186;SDS011;38161;53.020;6.598;2024-03-23T14:54:41;12.25;;;2.83;;
52186;SDS011;38161;53.020;6.598;2024-03-23T14:57:07;10.75;;;2.72;;
52186;SDS011;38161;53.020;6.598;2024-03-23T14:59:36;9.68;;;2.03;;
52186;SDS011;38161;53.020;6.598;2024-03-23T15:02:06;7.35;;;2.17;;
52186;SDS011;38161;53.020;6.598;2024-03-23T15:04:32;9.93;;;2.55;;
52186;SDS011;38161;53.020;6.598;2024-03-23T15:06:58;11.38;;;2.63;;
52186;SDS011;38161;53.020;6.598;2024-03-23T15:09:24;10.07;;;2.20;;
52186;SDS011;38161;53.020;6.598;2024-03-23T15:11:49;6.57;;;1.90;;
52186;SDS011;38161;53.020;6.598;2024-03-23T15:14:15;4.70;;;1.52;;
52186;SDS011;38161;53.020;6.598;2024-03-23T15:16:41;9.82;;;1.98;;
52186;SDS011;38161;53.020;6.598;2024-03-23T15:19:08;7.85;;;1.98;;
52186;SDS011;38161;53.020;6.598;2024-03-23T15:21:35;5.38;;;1.70;;
52186;SDS011;38161;53.020;6.598;2024-03-23T15:24:01;5.90;;;1.80;;
52186;SDS011;38161;53.020;6.598;2024-03-23T15:28:54;8.90;;;2.33;;
52186;SDS011;38161;53.020;6.598;2024-03-23T15:31:22;8.18;;;1.80;;
52186;SDS011;38161;53.020;6.598;2024-03-23T15:33:48;8.27;;;2.03;;
52186;SDS011;38161;53.020;6.598;2024-03-23T15:36:14;7.18;;;1.80;;
52186;SDS011;38161;53.020;6.598;2024-03-23T15:38:40;6.10;;;1.50;;
52186;SDS011;38161;53.020;6.598;2024-03-23T15:41:06;8.02;;;1.90;;
52186;SDS011;38161;53.020;6.598;2024-03-23T15:43:32;6.10;;;1.45;;
52186;SDS011;38161;53.020;6.598;2024-03-23T15:46:03;7.32;;;1.80;;
52186;SDS011;38161;53.020;6.598;2024-03-23T15:48:30;5.10;;;1.38;;
52186;SDS011;38161;53.020;6.598;2024-03-23T15:50:57;5.05;;;1.13;;
52186;SDS011;38161;53.020;6.598;2024-03-23T15:53:34;3.28;;;1.17;;
52186;SDS011;38161;53.020;6.598;2024-03-23T15:56:03;6.30;;;1.10;;
52186;SDS011;38161;53.020;6.598;2024-03-23T15:58:30;4.35;;;0.90;;
52186;SDS011;38161;53.020;6.598;2024-03-23T16:00:57;6.30;;;1.30;;
52186;SDS011;38161;53.020;6.598;2024-03-23T16:03:24;4.78;;;1.35;;
52186;SDS011;38161;53.020;6.598;2024-03-23T16:05:58;7.50;;;1.30;;
52186;SDS011;38161;53.020;6.598;2024-03-23T16:08:25;6.93;;;1.50;;
52186;SDS011;38161;53.020;6.598;2024-03-23T16:10:52;5.55;;;1.25;;